createdAt,value
2022-08-01T00:04:08.360Z,15.18
2022-08-01T00:09:07.347Z,15.21
2022-08-01T00:14:07.039Z,15.21
2022-08-01T00:19:07.553Z,15.21
2022-08-01T00:24:09.206Z,15.22
2022-08-01T00:30:09.584Z,15.23
2022-08-01T00:34:37.128Z,15.21
2022-08-01T00:39:36.999Z,15.19
2022-08-01T00:44:38.582Z,15.18
2022-08-01T00:49:38.344Z,15.16
2022-08-01T00:54:37.559Z,15.14
2022-08-01T00:59:37.231Z,15.12
2022-08-01T01:04:37.340Z,15.12
2022-08-01T01:09:47.274Z,15.10
2022-08-01T01:14:52.650Z,15.07
2022-08-01T01:19:59.761Z,15.02
2022-08-01T01:25:27.226Z,14.97
2022-08-01T01:30:30.620Z,14.90
2022-08-01T01:35:33.999Z,14.83
2022-08-01T01:40:36.234Z,14.76
2022-08-01T01:45:35.730Z,14.70
2022-08-01T01:50:37.472Z,14.64
2022-08-01T01:55:49.594Z,14.60
2022-08-01T02:00:53.563Z,14.56
2022-08-01T02:05:56.035Z,14.52
2022-08-01T02:11:20.199Z,14.48
2022-08-01T02:16:21.417Z,14.46
2022-08-01T02:21:29.607Z,14.43
2022-08-01T02:26:31.049Z,14.39
2022-08-01T02:31:32.606Z,14.35
2022-08-01T02:36:36.555Z,14.31
2022-08-01T02:41:40.895Z,14.26
2022-08-01T02:46:46.214Z,14.21
2022-08-01T02:51:48.625Z,14.16
2022-08-01T02:56:50.131Z,14.10
2022-08-01T03:01:52.183Z,14.04
2022-08-01T03:06:55.683Z,13.98
2022-08-01T03:11:55.183Z,13.90
2022-08-01T03:16:57.121Z,13.84
2022-08-01T03:21:59.566Z,13.77
2022-08-01T03:27:01.213Z,13.72
2022-08-01T03:32:02.307Z,13.68
2022-08-01T03:37:09.343Z,13.65
2022-08-01T03:42:18.381Z,13.64
2022-08-01T03:47:20.240Z,13.65
2022-08-01T03:52:20.043Z,13.66
2022-08-01T03:57:35.120Z,13.69
2022-08-01T04:02:36.297Z,13.72
2022-08-01T04:07:37.850Z,13.76
2022-08-01T04:12:38.006Z,13.80
2022-08-01T04:17:36.290Z,13.86
2022-08-01T04:22:37.476Z,13.91
2022-08-01T04:27:49.091Z,13.96
2022-08-01T04:32:53.703Z,14.00
2022-08-01T04:37:54.658Z,14.05
2022-08-01T04:42:54.354Z,14.09
2022-08-01T04:47:54.481Z,14.17
2022-08-01T04:52:53.160Z,14.26
2022-08-01T04:57:52.477Z,14.36
2022-08-01T05:02:51.848Z,14.45
2022-08-01T05:07:50.697Z,14.51
2022-08-01T05:12:49.117Z,14.54
2022-08-01T05:17:48.325Z,14.50
2022-08-01T05:22:48.225Z,14.45
2022-08-01T05:27:46.852Z,14.38
2022-08-01T05:32:47.187Z,14.32
2022-08-01T05:37:46.366Z,14.27
2022-08-01T05:42:45.449Z,14.25
2022-08-01T05:47:44.814Z,14.31
2022-08-01T05:52:44.234Z,14.43
2022-08-01T05:57:43.128Z,14.59
2022-08-01T06:02:45.503Z,14.77
2022-08-01T06:07:45.030Z,14.95
2022-08-01T06:12:43.912Z,15.14
2022-08-01T06:17:42.499Z,15.33
2022-08-01T06:22:41.780Z,15.52
2022-08-01T06:27:41.735Z,15.73
2022-08-01T06:32:40.146Z,15.96
2022-08-01T06:37:39.379Z,16.18
2022-08-01T06:42:38.510Z,16.37
2022-08-01T06:47:37.577Z,16.54
2022-08-01T06:52:36.506Z,16.70
2022-08-01T06:57:36.292Z,16.83
2022-08-01T07:02:35.597Z,16.98
2022-08-01T07:07:34.790Z,17.14
2022-08-01T07:12:35.464Z,17.30
2022-08-01T07:17:34.495Z,17.45
2022-08-01T07:22:32.888Z,17.62
2022-08-01T07:27:37.287Z,17.80
2022-08-01T07:32:37.198Z,17.95
2022-08-01T07:37:47.857Z,18.12
2022-08-01T07:42:48.229Z,18.26
2022-08-01T07:47:48.057Z,18.38
2022-08-01T07:52:47.331Z,18.52
2022-08-01T07:57:46.144Z,18.71
2022-08-01T08:02:45.198Z,18.90
2022-08-01T08:07:44.322Z,19.12
2022-08-01T08:12:43.671Z,19.29
2022-08-01T08:17:42.213Z,19.46
2022-08-01T08:22:41.981Z,19.59
2022-08-01T08:27:41.275Z,19.74
2022-08-01T08:32:40.165Z,19.90
2022-08-01T08:37:47.432Z,20.07
2022-08-01T08:42:48.878Z,20.30
2022-08-01T08:47:50.359Z,20.48
2022-08-01T08:52:50.753Z,20.62
2022-08-01T08:57:51.390Z,20.77
2022-08-01T09:02:56.685Z,20.89
2022-08-01T09:07:55.669Z,20.96
2022-08-01T09:13:14.178Z,20.98
2022-08-01T09:18:30.560Z,21.02
2022-08-01T09:23:40.882Z,21.10
2022-08-01T09:28:54.313Z,21.16
2022-08-01T09:33:59.055Z,21.30
2022-08-01T09:39:13.763Z,21.42
2022-08-01T09:44:12.801Z,21.57
2022-08-01T09:49:11.663Z,21.72
2022-08-01T09:54:12.757Z,21.86
2022-08-01T09:59:13.992Z,22.07
2022-08-01T10:04:16.954Z,22.37
2022-08-01T10:09:40.317Z,22.62
2022-08-01T10:14:46.320Z,22.84
2022-08-01T10:19:48.518Z,23.05
2022-08-01T10:24:50.105Z,23.23
2022-08-01T10:30:05.937Z,23.36
2022-08-01T10:35:15.839Z,23.44
2022-08-01T10:40:29.853Z,23.57
2022-08-01T10:45:30.709Z,23.82
2022-08-01T10:50:37.433Z,23.99
2022-08-01T10:55:52.135Z,24.24
2022-08-01T11:00:51.180Z,24.55
2022-08-01T11:05:56.777Z,24.89
2022-08-01T11:11:07.869Z,25.18
2022-08-01T11:16:32.316Z,25.39
2022-08-01T11:22:05.302Z,25.65
2022-08-01T11:27:23.642Z,25.70
2022-08-01T11:32:42.421Z,25.82
2022-08-01T11:37:53.549Z,26.11
2022-08-01T11:43:15.375Z,26.40
2022-08-01T11:48:27.681Z,26.89
2022-08-01T11:53:27.607Z,27.16
2022-08-01T11:58:31.330Z,27.35
2022-08-01T12:03:34.694Z,27.62
2022-08-01T12:08:37.500Z,27.95
2022-08-01T12:13:47.648Z,28.28
2022-08-01T12:18:47.865Z,28.37
2022-08-01T12:23:46.653Z,28.35
2022-08-01T12:28:46.199Z,28.61
2022-08-01T12:33:44.878Z,29.03
2022-08-01T12:38:45.450Z,29.44
2022-08-01T12:43:45.180Z,29.67
2022-08-01T12:48:43.988Z,29.77
2022-08-01T12:53:43.199Z,29.71
2022-08-01T12:58:42.742Z,29.75
2022-08-01T13:03:42.511Z,30.21
2022-08-01T13:08:41.429Z,30.76
2022-08-01T13:13:48.662Z,30.71
2022-08-01T13:18:54.985Z,30.92
2022-08-01T13:24:11.936Z,30.90
2022-08-01T13:29:13.568Z,30.72
2022-08-01T13:34:13.463Z,30.57
2022-08-01T13:39:31.557Z,30.85
2022-08-01T13:44:32.208Z,31.45
2022-08-01T13:49:37.456Z,31.56
2022-08-01T13:54:37.686Z,31.70
2022-08-01T13:59:37.357Z,31.89
2022-08-01T14:04:36.272Z,32.12
2022-08-01T14:09:35.835Z,32.05
2022-08-01T14:14:44.014Z,32.28
2022-08-01T14:19:46.348Z,32.44
2022-08-01T14:24:45.130Z,32.39
2022-08-01T14:29:59.933Z,31.93
2022-08-01T14:35:03.170Z,32.51
2022-08-01T14:40:05.938Z,32.94
2022-08-01T14:45:10.111Z,32.32
2022-08-01T14:50:13.961Z,31.09
2022-08-01T14:55:16.721Z,30.13
2022-08-01T15:00:16.997Z,29.33
2022-08-01T15:05:16.098Z,28.89
2022-08-01T15:10:17.409Z,29.23
2022-08-01T15:15:16.844Z,29.21
2022-08-01T15:20:16.406Z,29.27
2022-08-01T15:25:15.123Z,29.41
2022-08-01T15:30:16.073Z,29.75
2022-08-01T15:35:15.425Z,29.98
2022-08-01T15:40:17.221Z,30.19
2022-08-01T15:45:44.583Z,30.18
2022-08-01T15:50:39.545Z,29.69
2022-08-01T15:55:40.931Z,29.05
2022-08-01T16:00:40.994Z,29.10
2022-08-01T16:05:43.973Z,29.42
2022-08-01T16:10:43.254Z,29.91
2022-08-01T16:15:43.560Z,29.43
2022-08-01T16:20:45.908Z,28.57
2022-08-01T16:25:45.467Z,27.81
2022-08-01T16:30:48.819Z,27.25
2022-08-01T16:36:00.437Z,26.84
2022-08-01T16:41:02.881Z,26.42
2022-08-01T16:46:19.171Z,26.01
2022-08-01T16:51:20.112Z,25.64
2022-08-01T16:56:19.152Z,25.25
2022-08-01T17:01:59.698Z,24.95
2022-08-01T17:06:39.041Z,24.73
2022-08-01T17:11:39.152Z,24.59
2022-08-01T17:16:38.735Z,24.48
2022-08-01T17:21:41.414Z,24.38
2022-08-01T17:26:40.266Z,24.31
2022-08-01T17:31:38.895Z,24.27
2022-08-01T17:36:38.418Z,24.25
2022-08-01T17:41:37.596Z,24.22
2022-08-01T17:46:36.817Z,24.18
2022-08-01T17:51:37.226Z,24.11
2022-08-01T17:56:39.343Z,24.00
2022-08-01T18:01:45.220Z,23.89
2022-08-01T18:06:58.296Z,23.78
2022-08-01T18:11:57.982Z,23.68
2022-08-01T18:16:57.348Z,23.58
2022-08-01T18:21:57.447Z,23.49
2022-08-01T18:26:59.912Z,23.41
2022-08-01T18:32:02.902Z,23.32
2022-08-01T18:37:03.367Z,23.23
2022-08-01T18:42:03.854Z,23.15
2022-08-01T18:47:02.948Z,23.08
2022-08-01T18:52:02.328Z,23.01
2022-08-01T18:57:01.413Z,22.96
2022-08-01T19:02:02.317Z,22.91
2022-08-01T19:07:00.871Z,22.86
2022-08-01T19:11:59.471Z,22.82
2022-08-01T19:16:58.732Z,22.76
2022-08-01T19:21:58.357Z,22.70
2022-08-01T19:27:08.700Z,22.65
2022-08-01T19:32:11.714Z,22.61
2022-08-01T19:37:12.515Z,22.56
2022-08-01T19:42:13.638Z,22.50
2022-08-01T19:47:14.730Z,22.45
2022-08-01T19:52:17.010Z,22.41
2022-08-01T19:57:20.127Z,22.36
2022-08-01T20:02:23.143Z,22.31
2022-08-01T20:07:21.896Z,22.26
2022-08-01T20:12:25.536Z,22.21
2022-08-01T20:17:26.297Z,22.16
2022-08-01T20:22:31.733Z,22.11
2022-08-01T20:27:33.509Z,22.06
2022-08-01T20:32:34.788Z,22.00
2022-08-01T20:38:05.732Z,21.92
2022-08-01T20:42:56.969Z,21.82
2022-08-01T20:47:58.276Z,21.74
2022-08-01T20:52:56.856Z,21.65
2022-08-01T20:57:57.909Z,21.57
2022-08-01T21:03:17.311Z,21.49
2022-08-01T21:08:23.916Z,21.41
2022-08-01T21:13:38.488Z,21.34
2022-08-01T21:19:10.086Z,21.27
2022-08-01T21:24:16.897Z,21.19
2022-08-01T21:29:19.767Z,21.13
2022-08-01T21:34:19.970Z,21.08
2022-08-01T21:39:18.858Z,21.03
2022-08-01T21:44:20.246Z,20.99
2022-08-01T21:49:19.925Z,20.96
2022-08-01T21:54:35.816Z,20.94
2022-08-01T21:59:47.280Z,20.90
2022-08-01T22:04:54.747Z,20.85
2022-08-01T22:09:57.580Z,20.80
2022-08-01T22:14:59.749Z,20.74
2022-08-01T22:19:59.839Z,20.69
2022-08-01T22:24:59.705Z,20.64
2022-08-01T22:30:16.283Z,20.58
2022-08-01T22:35:18.655Z,20.51
2022-08-01T22:40:18.107Z,20.46
2022-08-01T22:45:25.158Z,20.42
2022-08-01T22:50:36.731Z,20.36
2022-08-01T22:55:58.290Z,20.29
2022-08-01T23:01:02.876Z,20.25
2022-08-01T23:06:11.437Z,20.20
2022-08-01T23:11:11.551Z,20.15
2022-08-01T23:16:14.429Z,20.10
2022-08-01T23:21:18.189Z,20.02
2022-08-01T23:26:17.828Z,19.94
2022-08-01T23:31:19.251Z,19.88
2022-08-01T23:36:17.904Z,19.81
2022-08-01T23:41:17.751Z,19.74
2022-08-01T23:46:16.830Z,19.68
2022-08-01T23:51:24.352Z,19.62
2022-08-01T23:56:25.404Z,19.56
